Time;durP1;ratioP1;P1;durP2;ratioP2;P2;SDS_P1;SDS_P2;PMS_P1;PMS_P2;Temp;Humidity;BMP_temperature;BMP_pressure;BME280_temperature;BME280_humidity;BME280_pressure;Samples;Min_cycle;Max_cycle;Signal;HPM_P1;HPM_P2
2021/05/31 00:00:54;;;;;;;11.57;10.63;;;10.50;99.90;;;;;;5073030;28;20059;-68
2021/05/31 00:03:22;;;;;;;11.20;10.30;;;10.50;99.90;;;;;;5071792;28;20090;-68
2021/05/31 00:05:50;;;;;;;11.38;10.48;;;10.40;99.90;;;;;;5072757;28;20137;-68
2021/05/31 00:08:18;;;;;;;11.70;10.63;;;10.40;99.90;;;;;;5072753;28;20095;-68
2021/05/31 00:10:45;;;;;;;11.30;10.40;;;10.40;99.90;;;;;;5072925;28;20102;-68
2021/05/31 00:13:16;;;;;;;11.68;10.60;;;10.30;99.90;;;;;;5071463;28;20069;-68
2021/05/31 00:15:43;;;;;;;11.27;10.48;;;10.30;99.90;;;;;;5071746;28;20072;-68
2021/05/31 00:18:14;;;;;;;11.55;10.65;;;10.30;99.90;;;;;;5071506;28;20072;-68
2021/05/31 00:20:43;;;;;;;11.75;10.57;;;10.20;99.90;;;;;;5071991;28;20059;-68
2021/05/31 00:23:10;;;;;;;11.35;10.40;;;10.20;99.90;;;;;;5072374;28;20102;-68
2021/05/31 00:25:38;;;;;;;11.63;10.63;;;10.20;99.90;;;;;;5065862;28;20079;-68
2021/05/31 00:28:13;;;;;;;11.68;10.52;;;10.20;99.90;;;;;;5071361;28;20053;-68
2021/05/31 00:30:44;;;;;;;10.80;9.93;;;10.10;99.90;;;;;;5071610;28;20507;-68
2021/05/31 00:33:11;;;;;;;11.52;10.60;;;10.10;99.90;;;;;;5070593;28;20074;-68
2021/05/31 00:35:38;;;;;;;11.23;10.32;;;10.00;99.90;;;;;;5071432;28;20056;-68
2021/05/31 00:38:13;;;;;;;11.50;10.50;;;10.00;99.90;;;;;;5070523;28;20537;-69
2021/05/31 00:40:41;;;;;;;11.55;10.43;;;10.00;99.90;;;;;;5071990;28;20059;-68
2021/05/31 00:43:08;;;;;;;11.98;10.82;;;10.00;99.90;;;;;;5071833;28;20143;-68
2021/05/31 00:45:36;;;;;;;11.80;10.80;;;9.90;99.90;;;;;;5071007;28;20387;-69
2021/05/31 00:48:03;;;;;;;11.65;10.55;;;9.90;99.90;;;;;;5044151;28;20057;-68
2021/05/31 00:50:31;;;;;;;11.70;10.68;;;9.80;99.90;;;;;;5067365;28;20044;-68
2021/05/31 00:52:58;;;;;;;11.20;10.30;;;9.80;99.90;;;;;;5070691;28;20098;-68
2021/05/31 00:55:26;;;;;;;11.55;10.35;;;9.80;99.90;;;;;;5041268;28;20496;-68
2021/05/31 00:57:55;;;;;;;11.20;10.30;;;9.70;99.90;;;;;;5067658;28;20064;-69
2021/05/31 01:00:26;;;;;;;11.55;10.55;;;9.70;99.90;;;;;;5066296;28;20471;-68
2021/05/31 01:02:53;;;;;;;10.77;9.82;;;9.70;99.90;;;;;;5069959;28;20425;-67
2021/05/31 01:05:22;;;;;;;10.85;9.85;;;9.60;99.90;;;;;;5069454;28;20098;-68
2021/05/31 01:07:56;;;;;;;11.52;10.52;;;9.60;99.90;;;;;;5069443;28;20052;-68
2021/05/31 01:10:36;;;;;;;10.90;9.85;;;9.50;99.90;;;;;;5069684;28;20095;-69
2021/05/31 01:13:11;;;;;;;11.05;10.00;;;9.50;99.90;;;;;;5066816;28;20056;-69
2021/05/31 01:15:51;;;;;;;11.23;10.07;;;9.40;99.90;;;;;;5071916;28;20499;-68
2021/05/31 01:18:21;;;;;;;10.73;9.80;;;9.40;99.90;;;;;;5070032;28;20041;-68
2021/05/31 01:21:01;;;;;;;10.98;10.07;;;9.40;99.90;;;;;;5071823;28;20084;-68
2021/05/31 01:23:31;;;;;;;11.95;10.85;;;9.30;99.90;;;;;;5061101;28;20419;-68
2021/05/31 01:26:11;;;;;;;11.02;10.13;;;9.30;99.90;;;;;;5070053;28;20550;-68
2021/05/31 01:29:08;;;;;;;11.27;10.18;;;9.20;99.90;;;;;;5064237;28;20113;-68
2021/05/31 01:31:48;;;;;;;10.82;9.77;;;9.20;99.90;;;;;;5061243;28;20858;-68
2021/05/31 01:34:26;;;;;;;11.13;10.18;;;9.20;99.90;;;;;;5071931;28;20448;-68
2021/05/31 01:36:58;;;;;;;10.95;9.95;;;9.10;99.90;;;;;;5054191;28;20049;-68
2021/05/31 01:39:30;;;;;;;11.20;9.98;;;9.10;99.90;;;;;;5072161;28;20055;-68
2021/05/31 01:41:58;;;;;;;10.40;9.40;;;9.10;99.90;;;;;;5070698;28;20049;-68
2021/05/31 01:44:26;;;;;;;10.38;9.55;;;9.10;99.90;;;;;;5070652;28;20042;-68
2021/05/31 01:46:54;;;;;;;10.63;9.52;;;9.00;99.90;;;;;;5069781;28;20090;-68
2021/05/31 01:49:22;;;;;;;10.27;9.20;;;9.00;99.90;;;;;;5070285;28;20052;-68
2021/05/31 01:51:50;;;;;;;10.73;9.63;;;9.00;99.90;;;;;;5061953;28;20079;-68
2021/05/31 01:54:19;;;;;;;10.82;9.93;;;9.00;99.90;;;;;;5061059;28;20114;-68
2021/05/31 01:56:49;;;;;;;11.07;9.98;;;9.00;99.90;;;;;;5069274;28;20051;-68
2021/05/31 01:59:18;;;;;;;10.90;9.80;;;8.90;99.90;;;;;;5074381;28;20076;-68
2021/05/31 02:01:49;;;;;;;10.05;9.13;;;8.90;99.90;;;;;;5075629;28;20076;-68
2021/05/31 02:04:16;;;;;;;10.80;9.90;;;8.90;99.90;;;;;;5074694;28;20072;-68
2021/05/31 02:06:44;;;;;;;11.20;10.20;;;8.90;99.90;;;;;;5067839;28;20049;-68
2021/05/31 02:09:11;;;;;;;10.95;9.45;;;8.90;99.90;;;;;;5073349;28;20411;-68
2021/05/31 02:11:43;;;;;;;11.00;9.90;;;8.80;99.90;;;;;;5071261;28;20056;-68
2021/05/31 02:14:23;;;;;;;10.43;9.43;;;8.80;99.90;;;;;;5071961;28;20053;-68
2021/05/31 02:17:13;;;;;;;10.65;9.48;;;8.80;99.90;;;;;;5058790;28;20048;-68
2021/05/31 02:19:43;;;;;;;9.95;9.15;;;8.70;99.90;;;;;;5069063;28;20056;-68
2021/05/31 02:22:13;;;;;;;9.93;9.10;;;8.70;99.90;;;;;;5074607;28;20105;-68
2021/05/31 02:24:41;;;;;;;10.60;9.48;;;8.60;99.90;;;;;;5067157;28;20063;-68
2021/05/31 02:27:09;;;;;;;10.18;9.27;;;8.60;99.90;;;;;;5073121;28;20040;-68
2021/05/31 02:29:37;;;;;;;11.35;9.40;;;8.50;99.90;;;;;;5075974;28;20044;-68
2021/05/31 02:32:06;;;;;;;10.55;9.18;;;8.50;99.90;;;;;;5073669;28;20048;-68
2021/05/31 02:34:34;;;;;;;10.25;9.20;;;8.40;99.90;;;;;;5071896;28;20499;-68
2021/05/31 02:37:02;;;;;;;10.45;9.45;;;8.40;99.90;;;;;;5074562;28;20080;-68
2021/05/31 02:39:29;;;;;;;9.55;8.75;;;8.40;99.90;;;;;;5071764;28;20079;-68
2021/05/31 02:41:56;;;;;;;9.77;8.88;;;8.40;99.90;;;;;;5066260;28;20127;-68
2021/05/31 02:44:24;;;;;;;10.68;9.40;;;8.30;99.90;;;;;;5073201;28;20056;-68
2021/05/31 02:46:51;;;;;;;10.35;9.45;;;8.30;99.90;;;;;;5074260;28;20558;-68
2021/05/31 02:49:19;;;;;;;10.00;9.02;;;8.30;99.90;;;;;;5073951;28;20127;-68
2021/05/31 02:51:46;;;;;;;9.90;8.98;;;8.20;99.90;;;;;;5072848;28;20091;-69
2021/05/31 02:54:14;;;;;;;10.55;9.48;;;8.20;99.90;;;;;;5073201;28;20083;-68
2021/05/31 02:56:44;;;;;;;10.13;9.13;;;8.10;99.90;;;;;;5061472;28;20053;-68
2021/05/31 02:59:11;;;;;;;10.05;9.10;;;8.10;99.90;;;;;;5071227;28;20068;-69
2021/05/31 03:01:39;;;;;;;9.68;8.77;;;8.10;99.90;;;;;;5068664;28;20045;-68
2021/05/31 03:04:06;;;;;;;9.93;8.93;;;8.10;99.90;;;;;;5064816;28;20115;-68
2021/05/31 03:06:33;;;;;;;10.48;9.38;;;8.10;99.90;;;;;;5069968;28;20075;-68
2021/05/31 03:09:01;;;;;;;10.85;9.48;;;8.10;99.90;;;;;;5060640;28;20057;-67
2021/05/31 03:11:28;;;;;;;10.40;9.38;;;8.10;99.90;;;;;;5060251;28;20398;-70
2021/05/31 03:13:55;;;;;;;11.23;9.15;;;8.10;99.90;;;;;;5072202;28;20059;-68
2021/05/31 03:16:23;;;;;;;10.18;8.85;;;8.00;99.90;;;;;;5072092;28;20064;-69
2021/05/31 03:18:50;;;;;;;10.30;9.27;;;8.00;99.90;;;;;;5056579;28;20045;-68
2021/05/31 03:21:17;;;;;;;10.82;9.55;;;8.00;99.90;;;;;;5073272;28;20414;-67
2021/05/31 03:23:45;;;;;;;10.40;9.30;;;7.90;99.90;;;;;;5069194;28;20073;-67
2021/05/31 03:26:12;;;;;;;10.02;9.05;;;7.90;99.90;;;;;;5069980;28;20048;-68
2021/05/31 03:28:39;;;;;;;11.27;9.70;;;7.90;99.90;;;;;;5073991;28;20076;-67
2021/05/31 03:31:07;;;;;;;11.73;10.52;;;7.90;99.90;;;;;;5055980;28;20143;-67
2021/05/31 03:33:34;;;;;;;12.05;9.80;;;7.90;99.90;;;;;;5071513;28;20044;-68
2021/05/31 03:36:01;;;;;;;12.30;10.30;;;7.90;99.90;;;;;;5056299;28;20098;-67
2021/05/31 03:38:29;;;;;;;12.20;9.30;;;8.00;99.90;;;;;;5073821;28;20450;-67
2021/05/31 03:40:56;;;;;;;11.10;9.25;;;8.00;99.90;;;;;;5071491;28;20083;-68
2021/05/31 03:43:23;;;;;;;10.50;9.40;;;8.00;99.90;;;;;;5063390;28;20171;-67
2021/05/31 03:45:50;;;;;;;10.23;9.18;;;8.10;99.90;;;;;;5073573;28;20044;-67
2021/05/31 03:48:19;;;;;;;10.00;8.98;;;8.10;99.90;;;;;;5072490;28;20084;-68
2021/05/31 03:50:49;;;;;;;9.50;8.60;;;8.10;99.90;;;;;;5074271;28;20133;-67
2021/05/31 03:53:16;;;;;;;9.45;8.55;;;8.10;99.90;;;;;;5071674;28;20568;-68
2021/05/31 03:55:43;;;;;;;10.00;8.80;;;8.10;99.90;;;;;;5071995;28;20060;-67
2021/05/31 03:58:11;;;;;;;9.05;8.25;;;8.10;99.90;;;;;;5072767;28;20052;-67
2021/05/31 04:00:38;;;;;;;9.93;8.15;;;8.00;99.90;;;;;;5071101;28;20052;-67
2021/05/31 04:03:07;;;;;;;9.30;8.50;;;8.10;99.90;;;;;;5066483;28;20510;-68
2021/05/31 04:05:37;;;;;;;12.00;9.55;;;8.10;99.90;;;;;;5069777;28;20131;-68
2021/05/31 04:13:37;;;;;;;10.13;9.05;;;8.20;99.90;;;;;;5070701;28;20056;-67
2021/05/31 04:16:04;;;;;;;9.95;8.90;;;8.40;99.90;;;;;;5073094;28;20080;-67
2021/05/31 04:18:31;;;;;;;12.70;9.27;;;8.50;99.90;;;;;;5067131;28;20489;-67
2021/05/31 04:20:59;;;;;;;10.00;8.95;;;8.50;99.90;;;;;;5067779;28;20434;-67
2021/05/31 04:23:26;;;;;;;14.00;9.25;;;8.70;99.90;;;;;;5052526;28;20411;-68
2021/05/31 04:25:54;;;;;;;10.65;9.13;;;8.70;99.90;;;;;;5076334;28;20079;-67
2021/05/31 04:28:22;;;;;;;10.63;9.60;;;8.80;99.90;;;;;;5079422;28;20095;-67
2021/05/31 04:30:49;;;;;;;10.32;9.32;;;9.00;99.90;;;;;;5072041;28;20122;-67
2021/05/31 04:33:16;;;;;;;12.63;9.00;;;9.00;99.90;;;;;;5072180;28;20048;-67
2021/05/31 04:35:44;;;;;;;11.60;8.80;;;9.10;99.90;;;;;;5072641;28;20052;-68
2021/05/31 04:38:11;;;;;;;9.65;8.75;;;9.20;99.90;;;;;;5071140;28;20078;-68
2021/05/31 04:40:38;;;;;;;12.15;9.23;;;9.20;99.90;;;;;;5072839;28;20056;-68
2021/05/31 04:43:05;;;;;;;11.00;9.25;;;9.30;99.90;;;;;;5072271;28;20123;-68
2021/05/31 04:45:33;;;;;;;10.63;9.63;;;9.30;99.90;;;;;;5065348;28;20072;-68
2021/05/31 04:48:00;;;;;;;10.68;9.57;;;9.40;99.90;;;;;;5060473;28;20056;-68
2021/05/31 04:50:28;;;;;;;10.77;9.68;;;9.50;99.90;;;;;;5070274;28;20067;-68
2021/05/31 04:52:55;;;;;;;11.07;9.77;;;9.60;99.90;;;;;;5069053;28;20456;-68
2021/05/31 04:55:23;;;;;;;10.45;9.50;;;9.50;99.90;;;;;;5053447;28;20438;-68
2021/05/31 04:57:50;;;;;;;10.50;9.50;;;9.60;99.90;;;;;;5071925;28;20048;-68
2021/05/31 05:00:19;;;;;;;10.50;9.60;;;9.70;99.90;;;;;;5071975;28;20562;-68
2021/05/31 05:02:47;;;;;;;9.75;8.85;;;9.80;99.90;;;;;;5050138;28;20041;-68
2021/05/31 05:05:15;;;;;;;10.52;9.48;;;9.90;99.90;;;;;;5066364;28;20077;-68
2021/05/31 05:07:45;;;;;;;11.25;10.02;;;10.00;99.90;;;;;;5070645;28;20123;-68
2021/05/31 05:10:22;;;;;;;11.48;10.32;;;10.10;99.90;;;;;;5070886;28;20052;-68
2021/05/31 05:12:51;;;;;;;11.07;9.80;;;10.20;99.90;;;;;;5070245;28;20411;-68
2021/05/31 05:15:21;;;;;;;11.05;9.95;;;10.30;99.90;;;;;;5071577;28;20094;-68
2021/05/31 05:17:49;;;;;;;10.75;9.75;;;10.30;99.90;;;;;;5071269;28;20048;-68
2021/05/31 05:20:18;;;;;;;13.57;11.40;;;10.40;99.90;;;;;;5072535;28;20060;-68
2021/05/31 05:22:46;;;;;;;10.85;9.85;;;10.40;99.90;;;;;;5069449;28;20362;-68
2021/05/31 05:25:14;;;;;;;11.38;10.35;;;10.40;99.90;;;;;;5063774;28;20044;-68
2021/05/31 05:27:43;;;;;;;10.52;9.43;;;10.50;99.90;;;;;;5070391;28;20123;-68
2021/05/31 05:30:14;;;;;;;12.07;10.77;;;10.60;99.90;;;;;;5052537;28;20053;-68
2021/05/31 05:32:47;;;;;;;10.77;9.80;;;10.60;99.90;;;;;;5070284;28;20075;-68
2021/05/31 05:48:11;;;;;;;11.93;10.93;;;11.20;99.90;;;;;;5055437;28;20051;-69
2021/05/31 05:50:39;;;;;;;11.23;10.15;;;11.30;99.90;;;;;;5066857;28;20044;-69
2021/05/31 05:53:06;;;;;;;11.05;10.13;;;11.40;99.90;;;;;;5055728;28;20128;-70
2021/05/31 05:55:34;;;;;;;10.93;9.93;;;11.60;99.90;;;;;;5070733;28;20072;-69
2021/05/31 05:58:01;;;;;;;12.00;10.05;;;11.60;99.90;;;;;;5053515;28;20041;-69
2021/05/31 06:00:31;;;;;;;11.00;9.90;;;11.80;99.90;;;;;;5039270;28;20170;-69
2021/05/31 06:02:58;;;;;;;11.32;10.40;;;11.90;99.90;;;;;;5069676;28;20044;-69
2021/05/31 06:05:26;;;;;;;10.73;9.73;;;12.00;99.90;;;;;;5071715;28;20090;-70
2021/05/31 06:07:53;;;;;;;11.50;10.38;;;12.20;99.90;;;;;;5069384;28;20037;-69
2021/05/31 06:10:20;;;;;;;11.25;10.20;;;12.40;99.90;;;;;;5053110;28;20098;-69
2021/05/31 06:12:48;;;;;;;14.95;11.48;;;12.40;99.90;;;;;;5052506;28;20048;-69
2021/05/31 06:15:15;;;;;;;19.58;15.38;;;12.40;99.90;;;;;;5070696;28;20102;-69
2021/05/31 06:17:44;;;;;;;13.55;12.25;;;12.50;99.90;;;;;;5069357;28;20079;-69
2021/05/31 06:20:12;;;;;;;12.02;10.93;;;12.60;99.90;;;;;;5069666;28;20097;-69
2021/05/31 06:22:40;;;;;;;11.13;9.68;;;12.70;99.90;;;;;;5069763;28;20041;-69
2021/05/31 06:25:12;;;;;;;11.35;10.23;;;12.70;99.90;;;;;;5069224;28;20376;-69
2021/05/31 06:27:45;;;;;;;12.57;11.45;;;12.70;99.90;;;;;;5069487;28;20400;-67
2021/05/31 06:30:13;;;;;;;11.52;10.52;;;12.90;99.90;;;;;;5071039;28;20382;-69
2021/05/31 06:32:41;;;;;;;12.15;11.02;;;13.00;99.90;;;;;;5070170;28;20091;-69
2021/05/31 06:35:08;;;;;;;12.00;10.75;;;13.00;99.90;;;;;;5061103;28;20052;-68
2021/05/31 06:37:39;;;;;;;11.63;10.63;;;13.00;99.90;;;;;;5069365;28;20098;-67
2021/05/31 06:40:12;;;;;;;12.45;11.25;;;13.20;99.90;;;;;;5068832;28;20076;-67
2021/05/31 06:42:41;;;;;;;12.27;11.02;;;13.20;99.90;;;;;;5068688;28;20040;-67
2021/05/31 06:45:12;;;;;;;12.20;11.10;;;13.30;99.90;;;;;;5061381;28;20080;-68
2021/05/31 06:47:40;;;;;;;11.93;10.77;;;13.30;99.90;;;;;;5074053;28;20074;-68
2021/05/31 06:50:08;;;;;;;12.20;11.10;;;13.40;99.90;;;;;;5067980;28;20053;-68
2021/05/31 06:52:36;;;;;;;12.43;11.10;;;13.40;99.90;;;;;;5073586;28;20056;-68
2021/05/31 06:55:06;;;;;;;13.00;11.68;;;13.50;99.90;;;;;;5073655;28;20110;-68
2021/05/31 06:57:34;;;;;;;12.90;11.70;;;13.60;99.90;;;;;;5071875;28;20594;-68
2021/05/31 07:00:06;;;;;;;11.80;10.57;;;13.70;99.90;;;;;;5073170;28;20128;-68
2021/05/31 07:02:33;;;;;;;11.82;10.73;;;13.80;99.90;;;;;;5071091;28;20086;-68
2021/05/31 07:05:01;;;;;;;13.10;12.00;;;13.90;99.90;;;;;;5073855;28;20044;-68
2021/05/31 07:07:28;;;;;;;11.15;10.25;;;14.00;99.90;;;;;;5070189;28;20044;-68
2021/05/31 07:09:55;;;;;;;10.52;9.63;;;14.10;99.90;;;;;;5068967;28;20041;-68
2021/05/31 07:12:23;;;;;;;11.27;10.20;;;14.10;99.90;;;;;;5070080;28;20063;-67
2021/05/31 07:14:51;;;;;;;11.48;10.27;;;14.20;99.90;;;;;;5050790;28;20048;-67
2021/05/31 07:17:19;;;;;;;12.38;9.48;;;14.30;99.90;;;;;;5067744;28;20127;-67
2021/05/31 07:19:47;;;;;;;14.25;12.77;;;14.40;99.90;;;;;;5070297;28;20131;-67
2021/05/31 07:22:22;;;;;;;12.33;11.20;;;14.50;99.90;;;;;;5069580;28;20052;-67
2021/05/31 07:24:50;;;;;;;12.50;11.27;;;14.60;99.90;;;;;;5062109;28;20121;-67
2021/05/31 07:27:18;;;;;;;11.27;10.18;;;14.60;99.90;;;;;;5069720;28;20101;-67
2021/05/31 07:29:46;;;;;;;10.40;9.60;;;14.60;99.90;;;;;;5069508;28;20560;-67
2021/05/31 07:32:14;;;;;;;10.55;9.70;;;14.70;99.90;;;;;;5063164;28;20470;-67
2021/05/31 07:34:42;;;;;;;10.23;9.32;;;14.80;99.90;;;;;;5059491;28;20056;-67
2021/05/31 07:37:10;;;;;;;10.52;9.65;;;14.80;99.90;;;;;;5046192;28;20052;-67
2021/05/31 07:39:37;;;;;;;11.38;10.45;;;14.90;99.90;;;;;;5069116;28;20058;-67
2021/05/31 07:42:06;;;;;;;11.52;10.52;;;15.00;99.90;;;;;;5072140;28;20066;-67
2021/05/31 07:44:33;;;;;;;10.48;9.63;;;15.00;99.90;;;;;;5071940;28;20341;-67
2021/05/31 07:47:02;;;;;;;10.77;9.90;;;15.20;99.90;;;;;;5070951;28;20072;-68
2021/05/31 07:49:29;;;;;;;9.77;8.98;;;15.10;99.90;;;;;;5061851;28;20044;-68
2021/05/31 07:52:06;;;;;;;9.52;8.68;;;15.20;99.90;;;;;;5066484;28;20057;-68
2021/05/31 07:54:34;;;;;;;10.80;9.70;;;15.20;99.90;;;;;;5053420;28;20052;-69
2021/05/31 07:57:03;;;;;;;11.30;10.15;;;15.40;99.90;;;;;;5052247;28;20056;-68
2021/05/31 07:59:45;;;;;;;10.70;9.90;;;15.50;99.90;;;;;;5072012;28;20051;-68
2021/05/31 08:02:23;;;;;;;10.50;9.60;;;15.60;99.90;;;;;;5065409;28;20041;-68
2021/05/31 08:04:53;;;;;;;11.18;10.05;;;15.70;99.90;;;;;;5063856;28;20040;-68
2021/05/31 08:07:20;;;;;;;11.38;10.40;;;15.80;99.90;;;;;;5066245;28;20506;-67
2021/05/31 08:09:48;;;;;;;10.45;9.50;;;15.90;99.90;;;;;;5068640;28;21155;-67
2021/05/31 08:12:16;;;;;;;11.65;10.45;;;16.00;99.90;;;;;;5050327;28;20052;-67
2021/05/31 08:14:44;;;;;;;12.02;10.82;;;16.20;99.90;;;;;;5069841;28;20050;-67
2021/05/31 08:17:11;;;;;;;10.50;9.70;;;16.30;99.90;;;;;;5071015;28;20074;-67
2021/05/31 08:19:39;;;;;;;10.90;10.00;;;16.30;99.90;;;;;;5070864;28;20067;-67
2021/05/31 08:22:06;;;;;;;11.95;10.95;;;16.40;99.90;;;;;;5061394;28;20049;-68
2021/05/31 08:24:34;;;;;;;14.15;12.00;;;16.50;99.90;;;;;;5062246;28;20527;-68
2021/05/31 08:27:01;;;;;;;11.00;9.90;;;16.70;99.90;;;;;;5070974;28;20090;-68
2021/05/31 08:29:29;;;;;;;10.48;9.68;;;16.70;99.90;;;;;;5070180;28;20052;-67
2021/05/31 08:31:57;;;;;;;10.20;9.40;;;16.70;99.90;;;;;;5070264;28;20048;-67
2021/05/31 08:34:25;;;;;;;10.77;10.07;;;16.70;99.90;;;;;;5072122;28;20056;-67
2021/05/31 08:36:53;;;;;;;10.85;10.05;;;16.80;99.90;;;;;;5067567;28;20650;-67
2021/05/31 08:39:21;;;;;;;14.07;12.68;;;17.00;99.90;;;;;;5060740;28;20051;-67
2021/05/31 08:41:48;;;;;;;10.82;9.82;;;17.20;99.90;;;;;;5070491;28;20139;-67
2021/05/31 08:44:30;;;;;;;11.07;10.13;;;17.30;99.90;;;;;;5071552;28;20121;-68
2021/05/31 08:47:03;;;;;;;10.18;9.38;;;17.40;99.90;;;;;;5053704;28;20045;-69
2021/05/31 08:49:30;;;;;;;10.38;9.60;;;17.50;99.90;;;;;;5058387;28;20052;-68
2021/05/31 08:51:58;;;;;;;10.25;9.45;;;17.70;99.90;;;;;;5065528;28;20044;-68
2021/05/31 08:54:26;;;;;;;10.43;9.73;;;17.80;99.90;;;;;;5070386;28;20079;-67
2021/05/31 08:56:54;;;;;;;10.90;9.82;;;17.80;99.90;;;;;;5069952;28;20084;-68
2021/05/31 08:59:21;;;;;;;10.25;9.45;;;17.70;99.90;;;;;;5069558;28;20064;-69
2021/05/31 09:01:49;;;;;;;9.80;9.10;;;17.70;99.90;;;;;;5070652;28;20041;-68
2021/05/31 09:04:16;;;;;;;10.38;9.48;;;17.70;99.90;;;;;;5055587;28;20055;-68
2021/05/31 09:07:01;;;;;;;10.07;9.27;;;17.80;99.90;;;;;;5061279;28;20434;-68
2021/05/31 09:09:42;;;;;;;11.73;10.63;;;17.80;99.90;;;;;;5045740;28;20491;-68
2021/05/31 09:12:12;;;;;;;11.07;10.23;;;17.80;99.90;;;;;;5054439;28;20041;-68
2021/05/31 09:14:42;;;;;;;11.20;10.30;;;17.80;99.90;;;;;;5061923;28;20052;-68
2021/05/31 09:17:09;;;;;;;10.57;9.68;;;17.80;99.90;;;;;;5070364;28;20049;-67
2021/05/31 09:19:47;;;;;;;10.63;9.82;;;17.80;99.90;;;;;;5069448;28;20064;-68
2021/05/31 09:22:15;;;;;;;10.75;9.93;;;18.00;99.90;;;;;;5053750;28;20110;-68
2021/05/31 09:24:55;;;;;;;10.77;9.98;;;18.10;99.90;;;;;;5060149;28;20068;-68
2021/05/31 09:27:23;;;;;;;10.20;9.50;;;18.10;99.90;;;;;;5067844;28;20486;-68
2021/05/31 09:29:56;;;;;;;10.10;9.30;;;18.30;99.90;;;;;;5056711;28;20105;-67
2021/05/31 09:32:24;;;;;;;10.10;9.40;;;18.30;99.60;;;;;;5068452;28;20075;-67
2021/05/31 09:35:01;;;;;;;10.20;9.40;;;18.30;99.90;;;;;;5070276;28;20075;-68
2021/05/31 09:37:29;;;;;;;11.05;10.05;;;18.60;99.80;;;;;;5068844;28;20052;-69
2021/05/31 09:40:03;;;;;;;9.98;9.27;;;18.70;99.50;;;;;;5070370;28;20090;-68
2021/05/31 09:42:32;;;;;;;11.10;10.30;;;18.80;99.00;;;;;;5068947;28;20099;-69
2021/05/31 09:45:06;;;;;;;10.80;9.98;;;19.00;98.90;;;;;;5070630;28;20044;-69
2021/05/31 09:47:36;;;;;;;10.55;9.75;;;19.10;98.30;;;;;;5070160;28;20045;-69
2021/05/31 09:50:06;;;;;;;10.63;9.82;;;19.30;97.60;;;;;;5071237;28;20048;-69
2021/05/31 09:52:36;;;;;;;10.85;9.85;;;19.30;96.80;;;;;;5065796;28;20514;-69
2021/05/31 09:55:11;;;;;;;9.88;9.18;;;19.40;96.90;;;;;;5069878;28;20052;-68
2021/05/31 09:57:39;;;;;;;10.45;9.65;;;19.50;96.30;;;;;;5070772;28;20060;-69
2021/05/31 10:00:20;;;;;;;11.02;10.07;;;19.60;96.00;;;;;;5069567;28;20510;-69
2021/05/31 10:02:57;;;;;;;10.88;9.98;;;19.60;96.10;;;;;;5069565;28;20044;-69
2021/05/31 10:08:03;;;;;;;10.63;9.93;;;19.90;95.50;;;;;;5037798;28;20051;-68
2021/05/31 10:10:32;;;;;;;11.18;10.32;;;20.00;94.30;;;;;;5049577;28;20048;-69
2021/05/31 10:13:03;;;;;;;10.70;9.93;;;20.10;93.80;;;;;;5071444;28;20044;-69
2021/05/31 10:15:36;;;;;;;10.80;10.00;;;20.30;93.20;;;;;;5052963;28;20049;-68
2021/05/31 10:18:07;;;;;;;11.63;10.60;;;20.40;93.10;;;;;;5067960;28;20056;-69
2021/05/31 10:20:37;;;;;;;13.00;12.00;;;20.50;92.90;;;;;;5069425;28;20072;-68
2021/05/31 10:23:06;;;;;;;11.27;10.48;;;20.60;92.60;;;;;;5059208;28;20265;-68
2021/05/31 10:25:39;;;;;;;12.50;11.25;;;20.80;92.30;;;;;;5065208;28;20147;-68
2021/05/31 10:28:16;;;;;;;12.02;10.77;;;20.90;91.30;;;;;;5073952;28;20099;-68
2021/05/31 10:30:49;;;;;;;11.23;10.43;;;21.10;90.60;;;;;;5073099;28;20103;-68
2021/05/31 10:33:20;;;;;;;11.32;10.52;;;21.30;90.60;;;;;;5073894;28;20055;-67
2021/05/31 10:35:49;;;;;;;11.02;10.02;;;21.50;90.70;;;;;;5074495;28;20084;-68
2021/05/31 10:38:22;;;;;;;10.55;9.85;;;21.60;90.20;;;;;;5066448;28;20045;-68
2021/05/31 10:40:54;;;;;;;11.00;10.20;;;21.80;90.20;;;;;;5073350;28;20040;-68
2021/05/31 10:43:24;;;;;;;11.10;10.10;;;21.80;89.80;;;;;;5073288;28;20049;-68
2021/05/31 10:46:03;;;;;;;10.32;9.63;;;22.00;89.30;;;;;;5056746;28;20052;-68
2021/05/31 10:48:50;;;;;;;11.38;10.48;;;22.10;88.50;;;;;;5072239;28;20052;-68
2021/05/31 10:51:31;;;;;;;10.35;9.65;;;22.50;87.20;;;;;;5067849;28;20044;-67
2021/05/31 10:54:13;;;;;;;10.63;9.73;;;22.70;85.10;;;;;;5071353;28;20052;-68
2021/05/31 10:56:41;;;;;;;10.32;9.57;;;22.80;84.30;;;;;;5071036;28;20056;-68
2021/05/31 10:59:15;;;;;;;11.00;10.20;;;23.00;83.70;;;;;;5072628;28;20084;-68
2021/05/31 11:01:42;;;;;;;10.65;9.73;;;23.30;80.90;;;;;;5072794;28;20094;-69
2021/05/31 11:04:18;;;;;;;10.10;9.40;;;23.40;81.10;;;;;;5071686;28;20047;-69
2021/05/31 11:06:47;;;;;;;13.57;12.48;;;23.40;80.30;;;;;;5072864;28;20040;-69
2021/05/31 11:09:15;;;;;;;13.85;12.70;;;23.10;80.40;;;;;;5065973;28;20048;-69
2021/05/31 11:11:48;;;;;;;10.48;9.77;;;22.90;81.30;;;;;;5069175;28;20508;-69
2021/05/31 11:14:37;;;;;;;11.27;10.32;;;22.60;81.20;;;;;;5071611;28;20052;-69
2021/05/31 11:17:10;;;;;;;10.63;9.80;;;22.60;81.70;;;;;;5054656;28;20101;-69
2021/05/31 11:19:38;;;;;;;10.77;9.98;;;23.00;81.30;;;;;;5088524;28;20049;-69
2021/05/31 11:22:19;;;;;;;10.82;9.82;;;23.50;80.70;;;;;;5071693;28;20049;-67
2021/05/31 11:25:00;;;;;;;10.75;9.68;;;23.80;78.80;;;;;;5088671;28;20052;-68
2021/05/31 11:27:34;;;;;;;10.93;10.07;;;24.30;78.60;;;;;;5071606;28;20109;-68
2021/05/31 11:30:10;;;;;;;10.65;9.82;;;24.80;77.50;;;;;;5057920;28;20052;-68
2021/05/31 11:32:38;;;;;;;11.02;10.15;;;24.80;75.60;;;;;;5070788;28;20060;-68
2021/05/31 11:35:12;;;;;;;11.15;10.35;;;25.10;75.40;;;;;;5073518;28;20522;-68
2021/05/31 11:38:00;;;;;;;10.45;9.75;;;25.30;74.80;;;;;;5066457;28;20380;-68
2021/05/31 11:40:30;;;;;;;10.30;9.60;;;25.60;72.90;;;;;;5071143;28;20499;-68
2021/05/31 11:43:02;;;;;;;10.55;9.85;;;25.70;72.00;;;;;;5070805;28;20109;-68
2021/05/31 11:45:34;;;;;;;11.80;10.90;;;26.10;72.30;;;;;;5069306;28;20048;-68
2021/05/31 11:48:16;;;;;;;11.63;10.63;;;26.50;71.00;;;;;;5058497;28;20095;-68
2021/05/31 11:50:46;;;;;;;10.38;9.65;;;26.70;70.00;;;;;;5071352;28;20048;-68
2021/05/31 11:53:16;;;;;;;10.27;9.48;;;26.50;69.40;;;;;;5069417;28;20048;-68
2021/05/31 11:55:45;;;;;;;10.32;9.55;;;26.40;68.80;;;;;;5072908;28;20394;-68
2021/05/31 11:58:13;;;;;;;10.10;9.30;;;26.40;68.90;;;;;;5062855;28;20489;-68
2021/05/31 12:00:42;;;;;;;9.73;9.00;;;26.90;67.70;;;;;;5061998;28;20376;-68
2021/05/31 12:03:18;;;;;;;10.68;9.80;;;27.40;66.90;;;;;;5069727;28;20053;-68
2021/05/31 12:05:46;;;;;;;10.20;9.50;;;27.80;65.90;;;;;;5069644;28;20560;-68
2021/05/31 12:08:16;;;;;;;10.48;9.68;;;27.80;65.50;;;;;;5071172;28;20052;-68
2021/05/31 12:10:45;;;;;;;10.88;10.10;;;28.00;65.30;;;;;;5050690;28;20143;-68
2021/05/31 12:13:13;;;;;;;10.75;9.95;;;28.00;64.30;;;;;;5067920;28;20052;-68
2021/05/31 12:15:41;;;;;;;10.43;9.73;;;28.10;64.90;;;;;;5070290;28;20052;-68
2021/05/31 12:18:14;;;;;;;10.70;9.90;;;28.50;63.80;;;;;;5066034;28;20044;-68
2021/05/31 12:20:42;;;;;;;10.73;10.02;;;28.60;61.80;;;;;;5051170;28;20103;-68
2021/05/31 12:23:21;;;;;;;11.13;10.43;;;28.80;62.50;;;;;;5057315;28;20445;-68
2021/05/31 12:25:50;;;;;;;10.98;10.18;;;28.60;60.60;;;;;;5070348;28;20126;-69
2021/05/31 12:28:19;;;;;;;11.63;10.82;;;28.60;61.90;;;;;;5071191;28;20373;-67
2021/05/31 12:30:48;;;;;;;11.10;10.30;;;28.50;60.80;;;;;;5071438;28;20114;-68
2021/05/31 12:33:17;;;;;;;10.65;9.95;;;27.90;61.30;;;;;;5072361;28;20056;-68
2021/05/31 12:35:47;;;;;;;10.63;9.82;;;27.70;60.00;;;;;;5069816;28;20040;-68
2021/05/31 12:38:21;;;;;;;10.43;9.45;;;28.10;59.90;;;;;;5070044;28;20063;-68
2021/05/31 12:40:50;;;;;;;10.85;9.95;;;28.40;60.20;;;;;;5070047;28;20044;-68
2021/05/31 12:43:29;;;;;;;11.30;10.50;;;28.80;60.80;;;;;;5060909;28;20105;-68
2021/05/31 12:45:56;;;;;;;10.77;10.07;;;29.20;60.10;;;;;;5069482;28;20133;-68
2021/05/31 12:48:24;;;;;;;12.60;11.60;;;29.40;59.50;;;;;;5070819;28;20049;-68
2021/05/31 12:50:53;;;;;;;11.38;10.55;;;29.60;59.40;;;;;;5070237;28;20056;-68
2021/05/31 12:53:21;;;;;;;10.93;10.18;;;29.80;59.40;;;;;;5069813;28;20063;-68
2021/05/31 12:55:49;;;;;;;10.30;9.60;;;30.30;58.00;;;;;;5065011;28;20441;-67
2021/05/31 12:58:21;;;;;;;10.63;9.93;;;30.60;57.50;;;;;;5068218;28;20052;-68
2021/05/31 13:00:49;;;;;;;;;;;30.10;57.20;;;;;;5070634;28;20087;-68
2021/05/31 13:03:20;;;;;;;10.77;9.98;;;29.80;58.00;;;;;;5070649;28;19924;-68
2021/05/31 13:05:51;;;;;;;10.30;9.60;;;30.20;57.90;;;;;;5070403;28;20426;-68
2021/05/31 13:08:20;;;;;;;10.30;9.60;;;30.30;56.60;;;;;;5061753;28;20052;-68
2021/05/31 13:10:53;;;;;;;10.70;9.80;;;30.90;57.30;;;;;;5055880;28;20045;-68
2021/05/31 13:13:31;;;;;;;10.13;9.45;;;31.10;56.30;;;;;;5064724;28;20139;-68